Time;durP1;ratioP1;P1;durP2;ratioP2;P2;SDS_P1;SDS_P2;PMS_P1;PMS_P2;Temp;Humidity;BMP_temperature;BMP_pressure;BME280_temperature;BME280_humidity;BME280_pressure;Samples;Min_cycle;Max_cycle;Signal;HPM_P1;HPM_P2
2021/09/26 00:00:10;;;;;;;4.23;3.87;;;16.40;99.90;;;;;;5046808;28;20203;-48
2021/09/26 00:02:41;;;;;;;3.90;3.60;;;16.40;99.90;;;;;;5043793;28;20274;-51
2021/09/26 00:05:10;;;;;;;4.40;4.10;;;16.40;99.90;;;;;;5032808;28;20233;-53
2021/09/26 00:07:37;;;;;;;4.83;4.33;;;16.40;99.90;;;;;;5042807;28;20215;-47
2021/09/26 00:10:06;;;;;;;6.80;3.93;;;16.40;99.90;;;;;;5038999;28;20203;-51
2021/09/26 00:12:34;;;;;;;5.17;4.00;;;16.50;99.90;;;;;;5042411;28;20278;-46
2021/09/26 00:15:01;;;;;;;5.07;3.60;;;16.40;99.90;;;;;;5046260;28;20208;-50
2021/09/26 00:17:28;;;;;;;4.03;3.63;;;16.50;99.90;;;;;;5042431;28;20652;-47
2021/09/26 00:19:55;;;;;;;6.80;3.63;;;16.50;99.90;;;;;;5046183;28;20234;-52
2021/09/26 00:22:21;;;;;;;7.03;3.97;;;16.40;99.90;;;;;;5028820;28;20210;-52
2021/09/26 00:24:48;;;;;;;4.23;3.83;;;16.40;99.90;;;;;;5037125;28;20425;-47
2021/09/26 00:27:15;;;;;;;4.67;4.10;;;16.30;99.90;;;;;;5044730;28;20271;-54
2021/09/26 00:29:43;;;;;;;3.70;3.33;;;16.30;99.90;;;;;;5043257;28;20274;-48
2021/09/26 00:32:10;;;;;;;4.07;3.53;;;16.30;99.90;;;;;;5045833;28;20199;-51
2021/09/26 00:34:37;;;;;;;3.77;3.53;;;16.30;99.90;;;;;;5033302;28;20200;-48
2021/09/26 00:37:05;;;;;;;4.50;4.20;;;16.30;99.90;;;;;;5031594;28;20223;-48
2021/09/26 00:39:31;;;;;;;4.33;3.70;;;16.30;99.90;;;;;;5041860;28;20216;-49
2021/09/26 00:41:58;;;;;;;4.43;3.60;;;16.30;99.90;;;;;;5036888;28;20202;-49
2021/09/26 00:44:25;;;;;;;5.37;3.90;;;16.30;99.90;;;;;;5042683;28;20222;-50
2021/09/26 00:46:53;;;;;;;5.43;4.20;;;16.30;99.90;;;;;;5045190;28;20218;-47
2021/09/26 00:49:20;;;;;;;4.73;3.80;;;16.30;99.90;;;;;;5043814;28;20215;-50
2021/09/26 00:51:47;;;;;;;5.73;4.03;;;16.30;99.90;;;;;;5042762;28;20207;-49
2021/09/26 00:54:14;;;;;;;4.23;3.83;;;16.30;99.90;;;;;;5030181;28;20207;-49
2021/09/26 00:56:41;;;;;;;4.30;3.63;;;16.30;99.90;;;;;;5034772;28;20788;-50
2021/09/26 00:59:08;;;;;;;4.67;3.60;;;16.30;99.90;;;;;;5045504;28;20249;-46
2021/09/26 01:01:34;;;;;;;4.10;3.67;;;16.30;99.90;;;;;;5041520;28;20443;-53
2021/09/26 01:04:02;;;;;;;5.77;4.00;;;16.30;99.90;;;;;;5045889;28;20553;-50
2021/09/26 01:06:41;;;;;;;5.77;4.63;;;16.20;99.90;;;;;;5041491;28;20199;-47
2021/09/26 01:09:13;;;;;;;7.53;4.10;;;16.20;99.90;;;;;;5031183;28;20722;-48
2021/09/26 01:11:50;;;;;;;4.30;3.90;;;16.30;99.90;;;;;;5032173;28;20195;-45
2021/09/26 01:14:23;;;;;;;8.13;4.43;;;16.30;99.90;;;;;;5038538;28;20289;-52
2021/09/26 01:17:01;;;;;;;6.20;5.33;;;16.30;99.90;;;;;;5044458;28;20226;-45
2021/09/26 01:19:45;;;;;;;7.53;4.40;;;16.30;99.90;;;;;;5041217;28;20226;-55
2021/09/26 01:22:19;;;;;;;4.57;4.03;;;16.30;99.90;;;;;;5038656;28;20203;-56
2021/09/26 01:25:13;;;;;;;5.30;3.83;;;16.30;99.90;;;;;;5032590;28;20801;-44
2021/09/26 01:28:24;;;;;;;5.60;3.70;;;16.30;99.90;;;;;;5032005;28;20219;-44
2021/09/26 01:30:55;;;;;;;5.00;4.20;;;16.20;99.90;;;;;;4940637;28;20207;-47
2021/09/26 01:33:27;;;;;;;6.30;3.93;;;16.20;99.90;;;;;;4934400;28;20211;-53
2021/09/26 01:35:58;;;;;;;6.93;3.83;;;16.10;99.90;;;;;;5002108;28;20223;-46
2021/09/26 01:38:35;;;;;;;7.13;3.53;;;16.10;99.90;;;;;;5029868;28;20224;-55
2021/09/26 01:41:09;;;;;;;5.70;3.77;;;16.10;99.90;;;;;;5043790;28;20206;-51
2021/09/26 01:43:39;;;;;;;4.37;3.60;;;16.00;99.90;;;;;;5033926;28;20187;-52
2021/09/26 01:46:11;;;;;;;3.77;3.30;;;16.00;99.90;;;;;;5038826;28;20555;-52
2021/09/26 01:48:43;;;;;;;3.80;3.40;;;16.00;99.90;;;;;;5042013;28;20226;-51
2021/09/26 01:51:11;;;;;;;4.17;3.17;;;16.00;99.90;;;;;;5045034;28;20191;-48
2021/09/26 01:53:42;;;;;;;3.90;3.50;;;16.00;99.90;;;;;;5027072;28;20463;-47
2021/09/26 01:56:12;;;;;;;4.53;3.33;;;16.10;99.90;;;;;;5044456;28;20253;-48
2021/09/26 01:58:39;;;;;;;3.40;3.10;;;16.10;99.90;;;;;;5033695;28;20219;-55
2021/09/26 02:01:08;;;;;;;3.60;3.30;;;16.10;99.90;;;;;;5044410;28;20195;-52
2021/09/26 02:03:36;;;;;;;5.20;3.27;;;16.10;99.90;;;;;;5040236;28;20329;-52
2021/09/26 02:06:04;;;;;;;3.90;3.40;;;16.10;99.90;;;;;;5044675;28;20735;-45
2021/09/26 02:08:32;;;;;;;4.10;2.90;;;16.10;99.90;;;;;;5039905;28;21102;-44
2021/09/26 02:10:59;;;;;;;4.67;3.37;;;16.10;99.90;;;;;;5029608;28;20211;-45
2021/09/26 02:13:27;;;;;;;4.07;3.43;;;16.10;99.90;;;;;;5032977;28;20199;-49
2021/09/26 02:15:55;;;;;;;3.97;3.00;;;16.10;99.90;;;;;;5044048;28;20200;-49
2021/09/26 02:18:23;;;;;;;3.27;3.03;;;16.10;99.90;;;;;;5041445;28;20613;-52
2021/09/26 02:20:51;;;;;;;3.97;3.00;;;16.10;99.90;;;;;;5043221;28;20207;-43
2021/09/26 02:23:19;;;;;;;5.90;3.20;;;16.10;99.90;;;;;;5041726;28;20211;-54
2021/09/26 02:25:46;;;;;;;6.00;3.13;;;16.10;99.90;;;;;;5028277;28;20211;-48
2021/09/26 02:28:13;;;;;;;2.60;2.40;;;16.10;99.90;;;;;;5043104;28;20223;-47
2021/09/26 02:30:40;;;;;;;2.53;2.33;;;16.00;99.90;;;;;;5034418;28;20230;-54
2021/09/26 02:33:07;;;;;;;4.13;2.90;;;16.00;99.90;;;;;;5044263;28;20222;-51
2021/09/26 02:35:35;;;;;;;3.83;2.70;;;16.00;99.90;;;;;;5040087;28;20196;-54
2021/09/26 02:38:02;;;;;;;2.77;2.57;;;16.00;99.90;;;;;;5043913;28;20219;-49
2021/09/26 02:40:29;;;;;;;4.43;2.93;;;16.00;99.90;;;;;;5026159;28;20222;-56
2021/09/26 02:43:09;;;;;;;3.17;2.53;;;16.00;99.90;;;;;;5043105;28;20302;-47
2021/09/26 02:45:41;;;;;;;3.47;2.30;;;16.00;99.90;;;;;;5032253;28;20195;-46
2021/09/26 02:48:11;;;;;;;3.47;2.70;;;16.00;99.90;;;;;;5043375;28;20219;-45
2021/09/26 02:50:41;;;;;;;2.73;2.30;;;16.00;99.90;;;;;;5040665;28;20286;-43
2021/09/26 02:53:08;;;;;;;3.97;2.50;;;16.00;99.90;;;;;;5043572;28;20211;-48
2021/09/26 02:55:36;;;;;;;6.20;2.77;;;16.00;99.90;;;;;;5025795;28;21239;-53
2021/09/26 02:58:03;;;;;;;5.40;2.80;;;16.00;99.90;;;;;;5043283;28;20215;-49
2021/09/26 03:00:35;;;;;;;4.47;2.77;;;16.00;99.90;;;;;;5031260;28;20215;-48
2021/09/26 03:03:06;;;;;;;3.10;2.80;;;16.00;99.90;;;;;;5043493;28;20198;-47
2021/09/26 03:05:33;;;;;;;4.87;2.43;;;16.00;99.90;;;;;;5033414;28;20850;-47
2021/09/26 03:08:01;;;;;;;2.53;2.30;;;16.00;99.90;;;;;;5042825;28;20223;-46
2021/09/26 03:10:29;;;;;;;2.93;2.50;;;16.00;99.90;;;;;;5020073;28;20207;-45
2021/09/26 03:12:55;;;;;;;3.40;2.40;;;15.90;99.90;;;;;;5042953;28;20195;-49
2021/09/26 03:15:22;;;;;;;4.60;2.63;;;15.90;99.90;;;;;;5037946;28;20206;-45
2021/09/26 03:17:49;;;;;;;4.60;2.40;;;15.90;99.90;;;;;;5043830;28;20226;-54
2021/09/26 03:20:16;;;;;;;2.70;2.27;;;15.90;99.90;;;;;;5040561;28;20234;-44
2021/09/26 03:22:43;;;;;;;3.10;2.17;;;15.90;99.90;;;;;;5044721;28;20349;-50
2021/09/26 03:25:11;;;;;;;5.60;3.20;;;15.90;99.90;;;;;;5047664;28;20660;-48
2021/09/26 03:27:38;;;;;;;3.80;3.30;;;15.80;99.90;;;;;;5033255;28;20210;-51
2021/09/26 03:30:06;;;;;;;3.40;2.90;;;15.80;99.90;;;;;;5047600;28;20635;-44
2021/09/26 03:32:32;;;;;;;4.47;2.77;;;15.80;99.90;;;;;;5034203;28;20195;-50
2021/09/26 03:34:59;;;;;;;3.43;2.47;;;15.80;99.90;;;;;;5046634;28;20199;-49
2021/09/26 03:37:26;;;;;;;3.10;2.90;;;15.80;99.90;;;;;;5043308;28;20218;-55
2021/09/26 03:39:53;;;;;;;4.53;3.27;;;15.80;99.90;;;;;;5046779;28;20695;-47
2021/09/26 03:42:21;;;;;;;4.63;3.20;;;15.80;99.90;;;;;;5029829;28;20199;-50
2021/09/26 03:44:47;;;;;;;4.23;3.37;;;15.80;99.90;;;;;;5045213;28;20198;-48
2021/09/26 03:47:14;;;;;;;4.00;3.53;;;15.80;99.90;;;;;;5037353;28;20195;-50
2021/09/26 03:49:41;;;;;;;4.90;3.60;;;15.80;99.90;;;;;;5044172;28;20183;-48
2021/09/26 03:52:08;;;;;;;5.70;4.03;;;15.80;99.90;;;;;;5046831;28;20205;-46
2021/09/26 03:54:34;;;;;;;4.20;3.90;;;15.80;99.90;;;;;;5042945;28;20916;-45
2021/09/26 03:57:01;;;;;;;7.23;4.47;;;15.80;99.90;;;;;;5046769;28;20207;-46
2021/09/26 03:59:29;;;;;;;4.23;3.93;;;15.80;99.90;;;;;;5028324;28;20743;-51
2021/09/26 04:01:56;;;;;;;5.40;4.50;;;15.80;99.90;;;;;;5038878;28;20203;-50
2021/09/26 04:04:22;;;;;;;4.70;4.10;;;15.90;99.90;;;;;;5035916;28;20214;-51
2021/09/26 04:06:49;;;;;;;5.50;4.30;;;15.90;99.90;;;;;;5040448;28;20210;-49
2021/09/26 04:09:16;;;;;;;4.80;4.00;;;15.90;99.90;;;;;;5044717;28;20258;-49
2021/09/26 04:11:44;;;;;;;8.10;4.87;;;15.80;99.90;;;;;;5044966;28;20198;-53
2021/09/26 04:14:10;;;;;;;4.47;4.07;;;15.90;99.90;;;;;;5031826;28;20203;-45
2021/09/26 04:16:38;;;;;;;5.20;4.70;;;15.90;99.90;;;;;;5043506;28;20194;-50
2021/09/26 04:19:05;;;;;;;4.67;3.80;;;15.90;99.90;;;;;;5038489;28;20223;-48
2021/09/26 04:21:32;;;;;;;3.60;3.33;;;15.90;99.90;;;;;;5042026;28;20187;-47
2021/09/26 04:23:58;;;;;;;5.63;4.20;;;16.00;99.90;;;;;;5041512;28;20203;-49
2021/09/26 04:26:25;;;;;;;8.80;5.47;;;15.90;99.90;;;;;;5042918;28;20218;-45
2021/09/26 04:28:52;;;;;;;8.23;4.70;;;16.00;99.90;;;;;;5032332;28;20571;-54
2021/09/26 04:31:18;;;;;;;5.17;4.67;;;16.00;99.90;;;;;;5043590;28;20195;-46
2021/09/26 04:33:46;;;;;;;5.40;4.67;;;16.00;99.90;;;;;;5044972;28;20192;-50
2021/09/26 04:36:13;;;;;;;5.43;4.90;;;16.00;99.90;;;;;;5036944;28;20207;-47
2021/09/26 04:38:39;;;;;;;5.30;4.80;;;16.00;99.90;;;;;;5038147;28;20559;-47
2021/09/26 04:41:06;;;;;;;9.07;5.60;;;16.00;99.90;;;;;;5036653;28;20223;-49
2021/09/26 04:43:33;;;;;;;7.53;5.37;;;16.00;99.90;;;;;;5045235;28;20196;-53
2021/09/26 04:45:59;;;;;;;8.17;5.60;;;16.00;99.90;;;;;;5027905;28;20202;-52
2021/09/26 04:48:27;;;;;;;7.53;5.07;;;16.00;99.90;;;;;;5044586;28;20219;-53
2021/09/26 04:50:55;;;;;;;5.10;4.60;;;16.00;99.90;;;;;;5035623;28;20207;-52
2021/09/26 04:53:22;;;;;;;5.10;4.47;;;16.00;99.90;;;;;;5041033;28;20199;-52
2021/09/26 04:55:49;;;;;;;7.00;5.00;;;16.00;99.90;;;;;;5043922;28;20722;-53
2021/09/26 04:58:16;;;;;;;5.23;4.73;;;16.00;99.90;;;;;;5039535;28;20331;-44
2021/09/26 05:00:42;;;;;;;8.37;5.63;;;16.00;99.90;;;;;;5030741;28;20246;-53
2021/09/26 05:03:09;;;;;;;9.57;5.80;;;16.00;99.90;;;;;;5037339;28;20204;-48
2021/09/26 05:05:36;;;;;;;6.93;5.43;;;16.00;99.90;;;;;;5036457;28;20673;-49
2021/09/26 05:08:05;;;;;;;7.13;6.03;;;16.00;99.90;;;;;;5040630;28;20888;-50
2021/09/26 05:10:32;;;;;;;8.77;5.90;;;16.00;99.90;;;;;;5039722;28;20203;-48
2021/09/26 05:12:59;;;;;;;6.80;6.00;;;16.10;99.90;;;;;;5041000;28;20220;-53
2021/09/26 05:15:25;;;;;;;6.90;5.97;;;16.10;99.90;;;;;;5032009;28;20207;-52
2021/09/26 05:17:52;;;;;;;6.87;5.77;;;16.10;99.90;;;;;;5037959;28;20227;-50
2021/09/26 05:20:19;;;;;;;7.33;6.33;;;16.10;99.90;;;;;;5036352;28;20231;-49
2021/09/26 05:22:46;;;;;;;6.90;5.77;;;16.10;99.90;;;;;;5043440;28;20684;-49
2021/09/26 05:25:15;;;;;;;6.93;5.97;;;16.10;99.90;;;;;;5036811;28;20956;-49
2021/09/26 05:27:41;;;;;;;8.37;5.87;;;16.10;99.90;;;;;;5044181;28;20227;-52
2021/09/26 05:30:09;;;;;;;6.93;6.13;;;16.10;99.90;;;;;;5027595;28;20217;-46
2021/09/26 05:32:36;;;;;;;8.90;6.80;;;16.20;99.90;;;;;;5044105;28;20199;-47
2021/09/26 05:35:04;;;;;;;6.90;6.30;;;16.20;99.90;;;;;;5028253;28;21450;-53
2021/09/26 05:37:31;;;;;;;9.00;6.77;;;16.20;99.90;;;;;;5043730;28;20195;-50
2021/09/26 05:39:58;;;;;;;8.10;6.33;;;16.20;99.90;;;;;;5040182;28;20221;-52
2021/09/26 05:42:26;;;;;;;8.23;6.40;;;16.20;99.90;;;;;;5040459;28;20223;-51
2021/09/26 05:44:52;;;;;;;7.33;6.63;;;16.30;99.90;;;;;;5042723;28;20206;-46
2021/09/26 05:47:19;;;;;;;8.03;7.27;;;16.20;99.90;;;;;;5028083;28;20551;-49
2021/09/26 05:49:46;;;;;;;10.13;7.17;;;16.30;99.90;;;;;;5037115;28;20210;-54
2021/09/26 05:52:12;;;;;;;7.13;6.53;;;16.30;99.90;;;;;;5034120;28;20199;-46
2021/09/26 05:54:41;;;;;;;10.10;6.97;;;16.30;99.90;;;;;;5044215;28;20200;-49
2021/09/26 05:57:07;;;;;;;8.43;7.67;;;16.30;99.90;;;;;;5032983;28;20204;-53
2021/09/26 05:59:38;;;;;;;7.07;6.37;;;16.30;99.90;;;;;;5043750;28;20229;-51
2021/09/26 06:02:06;;;;;;;7.73;6.47;;;16.40;99.90;;;;;;5006091;28;20207;-50
2021/09/26 06:04:32;;;;;;;9.77;7.77;;;16.40;99.90;;;;;;5039464;28;20672;-51
2021/09/26 06:06:59;;;;;;;7.40;6.80;;;16.40;99.90;;;;;;5032349;28;20196;-46
2021/09/26 06:09:26;;;;;;;9.53;7.60;;;16.50;99.90;;;;;;5041902;28;20297;-48
2021/09/26 06:11:52;;;;;;;9.00;7.33;;;16.50;99.90;;;;;;5035936;28;20203;-49
2021/09/26 06:14:19;;;;;;;9.47;6.90;;;16.50;99.90;;;;;;5034663;28;20230;-50
2021/09/26 06:16:47;;;;;;;7.40;6.67;;;16.50;99.90;;;;;;5037629;28;20732;-50
2021/09/26 06:19:13;;;;;;;8.47;7.67;;;16.50;99.90;;;;;;5034520;28;20223;-51
2021/09/26 06:21:43;;;;;;;7.63;6.83;;;16.50;99.90;;;;;;5038912;28;20220;-45
2021/09/26 06:24:10;;;;;;;7.30;6.57;;;16.50;99.90;;;;;;5032591;28;20218;-48
2021/09/26 06:26:36;;;;;;;8.43;7.17;;;16.60;99.90;;;;;;5038087;28;20698;-49
2021/09/26 06:29:03;;;;;;;7.90;7.10;;;16.60;99.90;;;;;;5037016;28;20273;-49
2021/09/26 06:31:30;;;;;;;7.83;7.03;;;16.70;99.90;;;;;;5041528;28;20199;-46
2021/09/26 06:33:58;;;;;;;9.20;7.00;;;16.60;99.90;;;;;;5028425;28;20204;-47
2021/09/26 06:36:25;;;;;;;7.57;6.97;;;16.70;99.90;;;;;;5038073;28;20206;-48
2021/09/26 06:38:53;;;;;;;8.33;6.90;;;16.70;99.90;;;;;;5032678;28;20225;-46
2021/09/26 06:41:22;;;;;;;7.60;6.90;;;16.70;99.90;;;;;;5035024;28;21124;-47
2021/09/26 06:43:49;;;;;;;8.90;6.93;;;16.80;99.90;;;;;;5038673;28;20222;-48
2021/09/26 06:46:16;;;;;;;8.63;6.70;;;16.80;99.90;;;;;;5038877;28;20203;-50
2021/09/26 06:48:44;;;;;;;8.77;7.00;;;16.90;99.90;;;;;;5026044;28;20234;-57
2021/09/26 06:51:12;;;;;;;8.23;6.97;;;16.90;99.90;;;;;;5039977;28;20230;-45
2021/09/26 06:53:39;;;;;;;8.00;7.20;;;17.00;99.90;;;;;;5034488;28;20214;-54
2021/09/26 06:56:08;;;;;;;7.27;6.53;;;17.10;99.90;;;;;;5042473;28;20226;-44
2021/09/26 06:58:36;;;;;;;8.37;7.37;;;17.20;99.90;;;;;;5034542;28;20805;-46
2021/09/26 07:01:04;;;;;;;8.07;6.70;;;17.30;99.90;;;;;;5035338;28;20227;-52
2021/09/26 07:03:31;;;;;;;7.87;6.80;;;17.40;99.90;;;;;;5043413;28;20249;-48
2021/09/26 07:05:58;;;;;;;7.80;6.93;;;17.40;99.90;;;;;;5028697;28;20218;-56
2021/09/26 07:08:26;;;;;;;8.63;6.83;;;17.50;99.90;;;;;;5039676;28;20224;-44
2021/09/26 07:10:53;;;;;;;9.67;7.37;;;17.50;99.90;;;;;;5028426;28;20226;-56
2021/09/26 07:13:19;;;;;;;8.23;7.17;;;17.50;99.90;;;;;;5035727;28;20187;-46
2021/09/26 07:15:46;;;;;;;7.27;6.63;;;17.60;99.90;;;;;;5043205;28;20584;-53
2021/09/26 07:18:12;;;;;;;7.20;6.50;;;17.60;99.90;;;;;;5033264;28;20360;-51
2021/09/26 07:20:39;;;;;;;7.40;6.70;;;17.70;99.90;;;;;;5033188;28;20215;-48
2021/09/26 07:23:07;;;;;;;9.00;6.83;;;17.80;99.90;;;;;;5038233;28;20826;-45
2021/09/26 07:25:36;;;;;;;6.53;5.90;;;17.90;99.90;;;;;;5027100;28;21063;-45
2021/09/26 07:28:05;;;;;;;6.77;5.87;;;18.00;99.90;;;;;;5032400;28;20227;-56
2021/09/26 07:30:33;;;;;;;7.20;6.50;;;18.10;99.90;;;;;;5042854;28;20679;-45
2021/09/26 07:33:00;;;;;;;7.53;6.83;;;18.20;99.90;;;;;;5014396;28;20218;-53
2021/09/26 07:35:28;;;;;;;7.00;5.57;;;18.30;99.90;;;;;;5020320;28;20203;-54
2021/09/26 07:37:55;;;;;;;6.27;5.43;;;18.40;99.90;;;;;;5039497;28;20237;-45
2021/09/26 07:40:22;;;;;;;5.73;5.33;;;18.40;99.90;;;;;;5033139;28;20276;-51
2021/09/26 07:42:50;;;;;;;7.17;5.73;;;18.50;99.90;;;;;;5032684;28;22367;-48
2021/09/26 07:45:16;;;;;;;6.17;5.67;;;18.60;99.90;;;;;;5041768;28;20609;-47
2021/09/26 07:47:44;;;;;;;5.40;4.90;;;18.70;99.90;;;;;;5034061;28;20231;-51
2021/09/26 07:50:12;;;;;;;6.70;5.10;;;18.80;99.90;;;;;;5042830;28;20206;-51
2021/09/26 07:52:38;;;;;;;5.20;4.80;;;18.90;99.90;;;;;;5026971;28;20203;-49
2021/09/26 07:55:06;;;;;;;5.90;5.30;;;19.00;99.90;;;;;;5038425;28;20215;-47
2021/09/26 07:57:32;;;;;;;5.37;4.70;;;19.00;99.90;;;;;;5025106;28;20292;-49
2021/09/26 08:00:01;;;;;;;5.47;5.07;;;19.10;99.90;;;;;;5042856;28;20202;-46
2021/09/26 08:02:27;;;;;;;5.73;5.23;;;19.10;99.90;;;;;;5035426;28;20223;-54
2021/09/26 08:04:54;;;;;;;5.20;4.57;;;19.20;99.90;;;;;;5044072;28;20210;-50
2021/09/26 08:07:21;;;;;;;6.40;4.73;;;19.30;99.90;;;;;;5031789;28;20199;-53
2021/09/26 08:09:47;;;;;;;7.37;4.73;;;19.40;99.90;;;;;;5044083;28;20183;-48
2021/09/26 08:12:14;;;;;;;4.80;4.40;;;19.40;99.90;;;;;;5045951;28;20199;-51
2021/09/26 08:14:40;;;;;;;5.03;4.53;;;19.50;99.90;;;;;;5030606;28;20196;-46
2021/09/26 08:17:09;;;;;;;4.80;4.27;;;19.60;99.90;;;;;;5038556;28;20202;-52
2021/09/26 08:19:36;;;;;;;4.47;4.17;;;19.60;99.90;;;;;;5033858;28;20208;-47
2021/09/26 08:22:04;;;;;;;4.90;4.53;;;19.70;99.90;;;;;;5028048;28;20223;-50
2021/09/26 08:24:31;;;;;;;4.50;4.00;;;19.70;99.90;;;;;;5035538;28;20199;-47
2021/09/26 08:26:58;;;;;;;4.43;4.13;;;19.80;99.90;;;;;;5045802;28;20206;-50
2021/09/26 08:29:24;;;;;;;4.30;4.00;;;19.90;99.90;;;;;;5029268;28;20234;-50
2021/09/26 08:31:51;;;;;;;4.07;3.77;;;19.90;99.90;;;;;;5045088;28;20203;-46
2021/09/26 08:34:19;;;;;;;5.43;3.50;;;20.00;99.90;;;;;;5036545;28;20523;-48
2021/09/26 08:36:46;;;;;;;3.83;3.53;;;20.00;99.90;;;;;;5027323;28;20207;-49
2021/09/26 08:39:12;;;;;;;3.90;3.60;;;20.10;99.90;;;;;;5042622;28;20230;-49
2021/09/26 08:41:40;;;;;;;3.40;3.20;;;20.20;99.90;;;;;;5041005;28;20211;-50
2021/09/26 08:44:06;;;;;;;3.43;3.20;;;20.20;99.90;;;;;;5036522;28;20226;-50
2021/09/26 08:46:34;;;;;;;3.87;3.60;;;20.30;99.90;;;;;;5037201;28;20195;-48
2021/09/26 08:49:02;;;;;;;3.53;3.30;;;20.40;99.90;;;;;;5045905;28;20219;-49
2021/09/26 08:51:30;;;;;;;4.43;3.40;;;20.50;99.90;;;;;;5030528;28;20790;-52
2021/09/26 08:53:56;;;;;;;4.70;3.90;;;20.50;99.90;;;;;;5031968;28;20208;-49
2021/09/26 08:56:23;;;;;;;3.97;3.67;;;20.60;99.90;;;;;;5041586;28;20187;-53
2021/09/26 08:58:52;;;;;;;3.87;3.57;;;20.60;99.90;;;;;;5038357;28;20239;-52
2021/09/26 09:01:19;;;;;;;3.60;2.93;;;20.70;99.90;;;;;;5037034;28;20212;-48
2021/09/26 09:03:47;;;;;;;3.40;3.10;;;20.70;99.90;;;;;;5041542;28;20202;-51
2021/09/26 09:06:14;;;;;;;3.90;3.60;;;20.80;99.90;;;;;;5033194;28;20226;-47
2021/09/26 09:08:42;;;;;;;3.87;3.53;;;20.80;99.90;;;;;;5030130;28;20349;-49
2021/09/26 09:11:10;;;;;;;4.33;3.50;;;20.90;99.90;;;;;;5038776;28;20196;-44
2021/09/26 09:13:39;;;;;;;3.27;3.07;;;20.90;99.90;;;;;;5040996;28;20203;-51
2021/09/26 09:16:07;;;;;;;3.37;3.07;;;21.00;99.90;;;;;;5034838;28;20226;-48
2021/09/26 09:18:42;;;;;;;3.30;3.10;;;21.00;99.90;;;;;;5036433;28;20218;-50
2021/09/26 09:21:17;;;;;;;3.58;3.30;;;21.10;99.90;;;;;;5037415;28;20214;-44
2021/09/26 09:23:45;;;;;;;5.30;3.00;;;21.20;99.90;;;;;;5025383;28;20206;-51
2021/09/26 09:26:12;;;;;;;3.42;3.13;;;21.20;99.90;;;;;;5035853;28;20600;-50
2021/09/26 09:28:40;;;;;;;4.18;3.05;;;21.30;99.90;;;;;;5040605;28;20215;-50
2021/09/26 09:31:08;;;;;;;3.40;3.20;;;21.30;99.90;;;;;;5035414;28;20195;-47
2021/09/26 09:33:37;;;;;;;3.40;3.20;;;21.30;99.90;;;;;;5035898;28;20199;-48
2021/09/26 09:36:04;;;;;;;2.95;2.70;;;21.40;99.90;;;;;;5035569;28;20203;-49
2021/09/26 09:38:37;;;;;;;3.20;3.00;;;21.50;99.90;;;;;;5040680;28;20234;-48
2021/09/26 09:41:05;;;;;;;4.07;2.80;;;21.60;99.90;;;;;;5025125;28;20219;-51
2021/09/26 09:43:31;;;;;;;4.55;3.00;;;21.70;99.90;;;;;;5042786;28;20195;-48
2021/09/26 09:46:01;;;;;;;3.63;3.33;;;21.80;99.90;;;;;;5026051;28;20202;-48
2021/09/26 09:48:29;;;;;;;3.10;2.65;;;21.90;99.90;;;;;;5042983;28;20226;-50
2021/09/26 09:50:59;;;;;;;3.38;3.08;;;21.80;99.90;;;;;;5039369;28;20211;-53
2021/09/26 09:53:31;;;;;;;3.58;2.95;;;21.90;99.90;;;;;;5038745;28;20210;-50
2021/09/26 09:56:01;;;;;;;3.90;2.72;;;21.90;99.90;;;;;;5026128;28;20202;-52
2021/09/26 09:58:34;;;;;;;3.60;2.72;;;21.90;99.90;;;;;;5039563;28;20306;-49
2021/09/26 10:01:01;;;;;;;3.53;2.90;;;22.00;99.90;;;;;;5027632;28;20242;-57
2021/09/26 10:03:54;;;;;;;3.67;3.22;;;22.10;99.90;;;;;;5045942;28;20676;-53
2021/09/26 10:06:26;;;;;;;3.13;2.92;;;22.10;99.90;;;;;;5046005;28;20203;-56
2021/09/26 10:08:55;;;;;;;2.80;2.60;;;22.10;99.90;;;;;;5023741;28;20301;-48
2021/09/26 10:11:22;;;;;;;2.90;2.42;;;22.20;99.90;;;;;;5043824;28;20187;-52
2021/09/26 10:13:50;;;;;;;2.85;2.65;;;22.20;99.90;;;;;;5042874;28;20199;-49
2021/09/26 10:16:16;;;;;;;2.70;2.50;;;22.20;99.90;;;;;;5036898;28;20195;-52
2021/09/26 10:18:43;;;;;;;2.95;2.75;;;22.30;99.90;;;;;;5041376;28;20905;-50
2021/09/26 10:21:13;;;;;;;2.72;2.63;;;22.30;99.90;;;;;;5041847;28;20221;-52
2021/09/26 10:23:43;;;;;;;4.00;3.00;;;22.40;99.90;;;;;;5033816;28;20210;-55
2021/09/26 10:26:10;;;;;;;2.50;2.40;;;22.40;99.90;;;;;;5029162;28;20196;-53
2021/09/26 10:28:37;;;;;;;2.70;2.50;;;22.50;99.90;;;;;;5042749;28;20227;-53
2021/09/26 10:31:06;;;;;;;2.83;2.60;;;22.50;99.90;;;;;;5025651;28;21668;-47
2021/09/26 10:33:33;;;;;;;3.42;2.80;;;22.50;99.90;;;;;;5043438;28;20206;-56
2021/09/26 10:36:01;;;;;;;3.20;2.90;;;22.60;99.90;;;;;;5036561;28;21777;-53
2021/09/26 10:38:28;;;;;;;4.13;2.40;;;22.60;99.90;;;;;;5044208;28;20215;-51
2021/09/26 10:40:55;;;;;;;3.47;3.17;;;22.70;99.90;;;;;;5022402;28;20400;-53
2021/09/26 10:43:25;;;;;;;3.33;3.03;;;22.60;99.90;;;;;;5043432;28;20184;-55
2021/09/26 10:46:14;;;;;;;2.65;2.45;;;22.70;99.90;;;;;;5034353;28;20203;-51
2021/09/26 10:49:01;;;;;;;3.90;2.58;;;22.70;99.90;;;;;;5036801;28;20207;-49
2021/09/26 10:51:42;;;;;;;3.00;2.80;;;22.80;99.90;;;;;;5034352;28;20199;-53
2021/09/26 10:54:31;;;;;;;2.78;2.58;;;22.80;99.90;;;;;;5036203;28;20207;-47
2021/09/26 10:57:26;;;;;;;3.22;2.97;;;22.80;99.90;;;;;;5020678;28;20256;-49
2021/09/26 10:59:55;;;;;;;2.78;2.58;;;22.90;99.90;;;;;;5037219;28;20200;-48
2021/09/26 11:02:38;;;;;;;3.22;2.92;;;23.00;99.90;;;;;;5031785;28;20225;-50
2021/09/26 11:05:06;;;;;;;2.60;2.40;;;23.00;99.90;;;;;;5042451;28;20199;-54
2021/09/26 11:07:43;;;;;;;2.70;2.50;;;23.10;99.90;;;;;;5032837;28;20203;-48
2021/09/26 11:10:10;;;;;;;3.60;2.70;;;23.10;99.90;;;;;;5037108;28;20276;-53
2021/09/26 11:12:42;;;;;;;2.63;2.42;;;23.10;99.90;;;;;;5024954;28;20202;-50
2021/09/26 11:15:12;;;;;;;3.00;2.80;;;23.20;99.90;;;;;;5042385;28;20204;-51
2021/09/26 11:17:45;;;;;;;3.03;2.80;;;23.20;99.90;;;;;;5026442;28;22071;-47
2021/09/26 11:20:14;;;;;;;4.43;2.40;;;23.30;99.90;;;;;;5037089;28;20214;-49
2021/09/26 11:22:40;;;;;;;2.72;2.55;;;23.30;99.90;;;;;;5030783;28;23294;-53
2021/09/26 11:25:07;;;;;;;3.20;3.00;;;23.40;99.90;;;;;;5038450;28;20203;-54
2021/09/26 11:27:37;;;;;;;2.88;2.63;;;23.30;99.90;;;;;;5026220;28;20219;-54
2021/09/26 11:30:29;;;;;;;2.90;2.70;;;23.40;99.90;;;;;;5041496;28;20203;-52
2021/09/26 11:33:04;;;;;;;3.10;2.80;;;23.40;99.90;;;;;;5030912;28;20188;-48
2021/09/26 11:35:36;;;;;;;3.30;3.00;;;23.40;99.90;;;;;;5038776;28;20203;-49
2021/09/26 11:38:09;;;;;;;3.78;3.05;;;23.50;99.90;;;;;;5042013;28;20215;-54
2021/09/26 11:41:04;;;;;;;3.20;2.90;;;23.50;99.90;;;;;;5039217;28;20191;-56
2021/09/26 11:43:37;;;;;;;3.08;2.80;;;23.60;99.90;;;;;;5029743;28;20222;-50
2021/09/26 11:46:22;;;;;;;2.95;2.75;;;23.60;99.90;;;;;;5043381;28;20210;-56
2021/09/26 11:48:53;;;;;;;3.67;3.30;;;23.70;99.90;;;;;;5038117;28;20222;-52
2021/09/26 11:51:21;;;;;;;3.63;3.30;;;23.80;99.90;;;;;;5046568;28;20199;-49
2021/09/26 11:53:47;;;;;;;3.38;3.17;;;23.90;99.90;;;;;;5039312;28;20200;-50
2021/09/26 11:56:20;;;;;;;3.45;2.92;;;23.90;99.90;;;;;;5041137;28;20568;-49
2021/09/26 11:58:52;;;;;;;5.72;3.30;;;23.90;99.90;;;;;;5027161;28;20217;-55
2021/09/26 12:01:27;;;;;;;3.50;3.30;;;23.90;99.90;;;;;;5028249;28;20191;-54
2021/09/26 12:04:09;;;;;;;3.42;3.10;;;24.00;99.90;;;;;;5038728;28;20214;-56
2021/09/26 12:06:37;;;;;;;3.15;2.78;;;24.00;99.90;;;;;;5037143;28;20199;-56
2021/09/26 12:09:05;;;;;;;2.92;2.72;;;23.90;99.90;;;;;;5034433;28;20231;-50
2021/09/26 12:11:32;;;;;;;3.20;2.90;;;23.90;99.90;;;;;;5045625;28;20851;-56
2021/09/26 12:13:59;;;;;;;4.13;3.78;;;23.80;99.90;;;;;;5029272;28;20698;-51
2021/09/26 12:16:27;;;;;;;3.45;3.15;;;23.70;99.90;;;;;;5046256;28;20197;-51
2021/09/26 12:18:56;;;;;;;3.72;3.50;;;23.70;99.90;;;;;;5047547;28;20223;-47
2021/09/26 12:21:28;;;;;;;3.28;3.08;;;23.70;99.90;;;;;;5035204;28;20191;-49
2021/09/26 12:23:59;;;;;;;3.33;2.92;;;23.80;99.90;;;;;;5040613;28;20214;-53
2021/09/26 12:26:29;;;;;;;3.65;3.45;;;23.90;99.90;;;;;;5040503;28;20207;-51
2021/09/26 12:29:05;;;;;;;3.10;2.90;;;24.00;99.90;;;;;;5030655;28;20673;-54
2021/09/26 12:31:35;;;;;;;3.80;3.50;;;24.10;99.90;;;;;;5042579;28;20195;-50
2021/09/26 12:34:02;;;;;;;3.83;3.40;;;24.10;99.90;;;;;;5042752;28;20207;-53
2021/09/26 12:36:32;;;;;;;3.30;3.00;;;24.10;99.90;;;;;;5035690;28;20680;-50
2021/09/26 12:39:01;;;;;;;3.85;3.55;;;24.10;99.90;;;;;;5039239;28;20231;-52
2021/09/26 12:41:31;;;;;;;3.38;3.17;;;24.20;99.90;;;;;;5042529;28;20266;-48
2021/09/26 12:44:01;;;;;;;3.67;3.38;;;24.20;99.90;;;;;;5028607;28;20719;-54
2021/09/26 12:46:33;;;;;;;4.18;3.20;;;24.30;99.90;;;;;;5037959;28;20195;-50
2021/09/26 12:49:01;;;;;;;4.22;3.33;;;24.40;99.90;;;;;;5043503;28;20219;-59
2021/09/26 12:51:30;;;;;;;3.53;3.22;;;24.30;99.90;;;;;;5017352;28;20203;-48
2021/09/26 12:53:59;;;;;;;3.65;3.28;;;24.20;99.90;;;;;;5039624;28;20605;-58
2021/09/26 12:56:29;;;;;;;4.18;3.58;;;24.00;99.90;;;;;;5042525;28;20191;-50